createdAt,value
2022-10-20T00:03:48.957Z,6.78
2022-10-20T00:05:50.325Z,6.76
2022-10-20T00:07:51.711Z,6.74
2022-10-20T00:09:52.862Z,6.81
2022-10-20T00:11:54.075Z,6.76
2022-10-20T00:13:55.125Z,6.77
2022-10-20T00:15:56.082Z,6.6
2022-10-20T00:17:57.962Z,6.55
2022-10-20T00:19:59.857Z,6.56
2022-10-20T00:22:01.005Z,6.5
2022-10-20T00:24:02.334Z,6.49
2022-10-20T00:26:03.960Z,6.61
2022-10-20T00:28:05.438Z,6.69
2022-10-20T00:30:06.892Z,6.63
2022-10-20T00:32:08.358Z,6.82
2022-10-20T00:34:09.893Z,6.81
2022-10-20T00:36:10.889Z,6.78
2022-10-20T00:38:12.679Z,6.77
2022-10-20T00:38:56.464Z,6.79
2022-10-20T00:40:57.699Z,6.75
2022-10-20T00:42:58.667Z,6.8
2022-10-20T00:45:00.084Z,6.77
2022-10-20T00:47:01.608Z,6.8
2022-10-20T00:49:03.307Z,6.8
2022-10-20T00:51:05.222Z,6.8
2022-10-20T00:53:06.435Z,6.78
2022-10-20T00:55:07.457Z,6.63
2022-10-20T00:57:08.646Z,6.6
2022-10-20T00:59:10.430Z,6.51
2022-10-20T01:01:12.317Z,6.69
2022-10-20T01:03:13.368Z,6.59
2022-10-20T01:05:15.144Z,6.4
2022-10-20T01:07:16.603Z,6.28
2022-10-20T01:09:18.474Z,6.17
2022-10-20T01:11:20.316Z,6.07
2022-10-20T01:13:21.998Z,6.18
2022-10-20T01:17:25.212Z,6.08
2022-10-20T01:19:26.545Z,6.04
2022-10-20T01:21:27.877Z,6.05
2022-10-20T01:23:29.816Z,6.3
2022-10-20T01:25:31.697Z,6.3
2022-10-20T01:27:33.095Z,6.34
2022-10-20T01:29:34.675Z,6.23
2022-10-20T01:31:35.724Z,6.23
2022-10-20T01:33:37.580Z,6.22
2022-10-20T01:37:48.712Z,6.06
2022-10-20T01:39:42.325Z,6.02
2022-10-20T01:41:43.617Z,6.01
2022-10-20T01:43:44.764Z,6.17
2022-10-20T01:45:46.689Z,6.14
2022-10-20T01:47:48.511Z,6.13
2022-10-20T01:49:49.635Z,6.15
2022-10-20T01:51:51.231Z,6.21
2022-10-20T01:53:52.783Z,6.21
2022-10-20T01:55:53.984Z,6.13
2022-10-20T01:57:55.435Z,6.1
2022-10-20T01:59:56.806Z,6.06
2022-10-20T02:01:58.084Z,5.99
2022-10-20T02:03:59.503Z,6.02
2022-10-20T02:06:00.914Z,6.02
2022-10-20T02:08:02.521Z,6.06
2022-10-20T02:10:03.827Z,6.14
2022-10-20T02:12:04.897Z,6.08
2022-10-20T02:14:06.849Z,6.14
2022-10-20T02:16:07.879Z,6.09
2022-10-20T02:18:09.644Z,6.05
2022-10-20T02:20:11.261Z,6.02
2022-10-20T02:22:12.848Z,6.01
2022-10-20T02:24:14.315Z,6.09
2022-10-20T02:26:15.669Z,6.23
2022-10-20T02:28:17.035Z,6.19
2022-10-20T02:30:18.503Z,6.17
2022-10-20T02:32:19.929Z,6.22
2022-10-20T02:34:21.216Z,6.15
2022-10-20T02:36:22.926Z,6.08
2022-10-20T02:38:24.594Z,6.07
2022-10-20T02:40:26.330Z,6.03
2022-10-20T02:42:27.745Z,5.93
2022-10-20T02:44:29.179Z,6.01
2022-10-20T02:46:31.067Z,6.01
2022-10-20T02:48:32.304Z,6.05
2022-10-20T02:50:34.217Z,6.15
2022-10-20T02:52:35.492Z,6.15
2022-10-20T02:54:37.058Z,6.15
2022-10-20T02:56:38.451Z,6.15
2022-10-20T02:58:39.922Z,6.21
2022-10-20T03:00:41.256Z,6.14
2022-10-20T03:02:42.633Z,6.06
2022-10-20T03:04:44.137Z,6.03
2022-10-20T03:06:46.057Z,6.06
2022-10-20T03:08:48.272Z,6.17
2022-10-20T03:10:49.883Z,6.1
2022-10-20T03:12:51.310Z,6.02
2022-10-20T03:14:53.127Z,6.02
2022-10-20T03:16:54.513Z,6.08
2022-10-20T03:18:58.731Z,6.05
2022-10-20T03:20:57.305Z,6.05
2022-10-20T03:22:58.355Z,6.03
2022-10-20T03:25:00.294Z,6.01
2022-10-20T03:27:01.412Z,5.98
2022-10-20T03:29:02.535Z,5.91
2022-10-20T03:31:04.427Z,5.98
2022-10-20T03:33:05.687Z,5.98
2022-10-20T03:35:07.570Z,6.05
2022-10-20T03:37:08.763Z,6.08
2022-10-20T03:39:09.959Z,6.33
2022-10-20T03:41:10.930Z,6.4
2022-10-20T03:43:12.157Z,6.35
2022-10-20T03:45:15.036Z,6.32
2022-10-20T03:47:15.217Z,6.45
2022-10-20T03:49:16.652Z,6.43
2022-10-20T03:51:18.145Z,6.42
2022-10-20T03:53:19.581Z,6.37
2022-10-20T03:55:20.544Z,6.54
2022-10-20T03:57:21.621Z,6.51
2022-10-20T03:59:24.449Z,6.53
2022-10-20T04:01:24.483Z,6.57
2022-10-20T04:03:26.204Z,6.58
2022-10-20T04:05:27.578Z,6.57
2022-10-20T04:07:29.509Z,6.69
2022-10-20T04:09:31.000Z,6.79
2022-10-20T04:11:32.492Z,6.91
2022-10-20T04:13:33.761Z,7.02
2022-10-20T04:15:35.092Z,7.06
2022-10-20T04:17:36.880Z,7.07
2022-10-20T04:19:37.975Z,7.14
2022-10-20T04:21:39.431Z,7.25
2022-10-20T04:23:40.790Z,7.33
2022-10-20T04:25:42.113Z,7.4
2022-10-20T04:27:43.246Z,7.58
2022-10-20T04:29:44.315Z,7.68
2022-10-20T04:31:48.168Z,7.76
2022-10-20T04:33:47.809Z,7.75
2022-10-20T04:37:51.616Z,7.75
2022-10-20T04:39:53.185Z,7.63
2022-10-20T04:43:55.991Z,7.47
2022-10-20T04:45:57.883Z,7.47
2022-10-20T04:47:59.782Z,7.45
2022-10-20T04:50:01.283Z,7.45
2022-10-20T04:52:02.203Z,7.43
2022-10-20T04:56:05.276Z,7.47
2022-10-20T04:58:06.237Z,7.51
2022-10-20T05:00:07.484Z,7.96
2022-10-20T05:02:09.004Z,7.84
2022-10-20T05:04:10.679Z,7.81
2022-10-20T05:06:12.531Z,7.87
2022-10-20T05:08:13.498Z,7.92
2022-10-20T05:10:15.205Z,8.1
2022-10-20T05:12:16.292Z,7.87
2022-10-20T05:14:18.113Z,8.01
2022-10-20T05:16:19.704Z,7.89
2022-10-20T05:18:21.638Z,7.96
2022-10-20T05:20:22.766Z,8.05
2022-10-20T05:22:23.709Z,7.9
2022-10-20T05:24:27.801Z,7.93
2022-10-20T05:26:27.156Z,7.86
2022-10-20T05:28:29.104Z,7.84
2022-10-20T05:30:30.690Z,7.82
2022-10-20T05:32:32.450Z,7.88
2022-10-20T05:34:33.822Z,7.99
2022-10-20T05:36:35.150Z,8.06
2022-10-20T05:38:37.000Z,7.96
2022-10-20T05:40:47.403Z,7.9
2022-10-20T05:42:40.152Z,7.83
2022-10-20T05:44:41.855Z,7.82
2022-10-20T05:46:43.556Z,7.8
2022-10-20T05:48:45.380Z,7.82
2022-10-20T05:52:47.368Z,7.88
2022-10-20T05:54:48.755Z,7.88
2022-10-20T05:56:50.283Z,7.9
2022-10-20T05:58:51.505Z,7.91
2022-10-20T06:00:53.104Z,7.99
2022-10-20T06:02:54.682Z,8.02
2022-10-20T06:04:56.071Z,8.11
2022-10-20T06:06:57.537Z,8.18
2022-10-20T06:08:58.973Z,8.13
2022-10-20T06:10:59.879Z,8.07
2022-10-20T06:13:01.121Z,8.1
2022-10-20T06:15:02.882Z,8.15
2022-10-20T06:17:04.081Z,8.09
2022-10-20T06:19:05.646Z,8.13
2022-10-20T06:21:06.782Z,8.11
2022-10-20T06:23:08.432Z,8.11
2022-10-20T06:25:09.770Z,8.08
2022-10-20T06:27:11.142Z,8.08
2022-10-20T06:29:12.277Z,8.25
2022-10-20T06:31:13.719Z,8.29
2022-10-20T06:33:15.184Z,8.3
2022-10-20T06:35:16.331Z,8.3
2022-10-20T06:37:17.614Z,8.34
2022-10-20T06:39:19.112Z,8.44
2022-10-20T06:41:20.618Z,8.52
2022-10-20T06:43:22.212Z,8.55
2022-10-20T06:45:23.497Z,8.73
2022-10-20T06:47:25.015Z,8.8
2022-10-20T06:49:26.398Z,8.78
2022-10-20T06:51:27.561Z,8.55
2022-10-20T06:53:28.964Z,8.45
2022-10-20T06:55:29.957Z,8.67
2022-10-20T06:57:31.455Z,8.79
2022-10-20T06:59:32.726Z,8.84
2022-10-20T07:01:33.805Z,8.95
2022-10-20T07:03:34.648Z,8.89
2022-10-20T07:05:36.015Z,8.88
2022-10-20T07:07:37.680Z,8.86
2022-10-20T07:09:38.652Z,8.82
2022-10-20T07:11:40.554Z,8.83
2022-10-20T07:13:41.594Z,8.95
2022-10-20T07:15:43.318Z,9.01
2022-10-20T07:17:44.763Z,9.03
2022-10-20T07:19:45.891Z,9.05
2022-10-20T07:21:47.304Z,9.03
2022-10-20T07:23:48.425Z,9.07
2022-10-20T07:24:32.211Z,9.08
2022-10-20T07:26:33.855Z,9.11
2022-10-20T07:28:35.668Z,9.11
2022-10-20T07:30:37.183Z,9.17
2022-10-20T07:32:38.696Z,9.18
2022-10-20T07:34:39.879Z,9.25
2022-10-20T07:36:41.297Z,9.39
2022-10-20T07:38:43.042Z,9.67
2022-10-20T07:40:44.079Z,9.75
2022-10-20T07:42:45.385Z,9.72
2022-10-20T07:44:47.089Z,9.72
2022-10-20T07:46:48.575Z,9.77
2022-10-20T07:48:49.995Z,9.7
2022-10-20T07:50:51.417Z,9.91
2022-10-20T07:52:52.539Z,9.79
2022-10-20T07:55:01.489Z,9.85
2022-10-20T07:56:55.501Z,9.94
2022-10-20T07:58:56.970Z,10.06
2022-10-20T08:00:57.893Z,10.18
2022-10-20T08:02:58.910Z,10.23
2022-10-20T08:05:00.222Z,10.27
2022-10-20T08:07:01.362Z,10.33
2022-10-20T08:09:02.962Z,10.62
2022-10-20T08:11:04.302Z,10.9
2022-10-20T08:13:05.175Z,11
2022-10-20T08:15:06.507Z,11.15
2022-10-20T08:17:07.764Z,11.29
2022-10-20T08:19:41.402Z,11.38
2022-10-20T08:21:11.034Z,11.33
2022-10-20T08:23:12.860Z,11.38
2022-10-20T08:25:14.188Z,11.42
2022-10-20T08:27:15.919Z,11.49
2022-10-20T08:29:17.511Z,11.65
2022-10-20T08:31:18.793Z,11.69
2022-10-20T08:33:20.342Z,11.49
2022-10-20T08:35:21.416Z,11.5
2022-10-20T08:37:22.609Z,11.57
2022-10-20T08:39:24.219Z,11.46
2022-10-20T08:43:27.391Z,11.44
2022-10-20T08:45:29.099Z,11.35
2022-10-20T08:47:32.321Z,11.32
2022-10-20T08:49:31.550Z,11.36
2022-10-20T08:51:32.745Z,11.27
2022-10-20T08:53:34.549Z,11.25
2022-10-20T08:55:36.206Z,11.27
2022-10-20T08:57:37.940Z,11.15
2022-10-20T08:59:39.257Z,11.2
2022-10-20T09:01:40.416Z,11.23
2022-10-20T09:03:41.350Z,11.33
2022-10-20T09:05:42.665Z,11.38
2022-10-20T09:07:43.528Z,11.51
2022-10-20T09:09:44.977Z,11.62
2022-10-20T09:11:46.677Z,11.63
2022-10-20T09:15:49.332Z,11.58
2022-10-20T09:17:50.720Z,11.51
2022-10-20T09:19:52.631Z,11.54
2022-10-20T09:21:53.722Z,11.51
2022-10-20T09:23:54.698Z,11.53
2022-10-20T09:25:55.796Z,11.56
2022-10-20T09:27:56.729Z,11.6
2022-10-20T09:29:58.474Z,11.56
2022-10-20T09:32:07.904Z,11.49
2022-10-20T09:34:01.865Z,11.51
2022-10-20T09:36:03.080Z,11.57
2022-10-20T09:38:04.079Z,11.65
2022-10-20T09:40:05.319Z,11.8
2022-10-20T09:42:06.446Z,11.84
2022-10-20T09:44:07.409Z,11.8
2022-10-20T09:46:09.291Z,11.83
2022-10-20T09:48:10.685Z,11.95
2022-10-20T09:50:12.014Z,11.97
2022-10-20T09:52:13.502Z,11.97
2022-10-20T09:54:14.810Z,12
2022-10-20T09:56:16.111Z,11.85
2022-10-20T09:58:17.596Z,11.81
2022-10-20T10:00:32.428Z,11.89
2022-10-20T10:02:20.832Z,12.02
2022-10-20T10:04:30.258Z,12.07
2022-10-20T10:06:23.788Z,12.07
2022-10-20T10:08:24.842Z,12.07
2022-10-20T10:10:25.766Z,12.05
2022-10-20T10:12:27.630Z,12.15
2022-10-20T10:14:28.590Z,12.15
2022-10-20T10:16:30.380Z,12.05
2022-10-20T10:18:31.268Z,12.24
2022-10-20T10:20:32.465Z,12.33
2022-10-20T10:22:33.869Z,12.41
2022-10-20T10:24:35.379Z,12.6
2022-10-20T10:26:37.168Z,12.69
2022-10-20T10:28:38.398Z,12.78
2022-10-20T10:30:40.019Z,13.1
2022-10-20T10:32:41.190Z,13.05
2022-10-20T10:34:42.772Z,13.07
2022-10-20T10:36:44.071Z,13.21
2022-10-20T10:38:44.911Z,13.07
2022-10-20T10:40:46.074Z,13.22
2022-10-20T10:42:47.497Z,13.38
2022-10-20T10:44:48.423Z,13.31
2022-10-20T10:46:49.942Z,13.31
2022-10-20T10:48:52.292Z,13.13
2022-10-20T10:50:53.219Z,13.31
2022-10-20T10:52:55.026Z,13.57
2022-10-20T10:54:56.679Z,13.6
2022-10-20T10:56:58.378Z,13.49
2022-10-20T10:58:59.348Z,13.52
2022-10-20T11:01:00.616Z,13.76
2022-10-20T11:03:02.224Z,13.79
2022-10-20T11:05:03.741Z,13.62
2022-10-20T11:07:05.522Z,13.64
2022-10-20T11:09:06.937Z,13.65
2022-10-20T11:11:08.382Z,13.51
2022-10-20T11:13:09.294Z,13.55
2022-10-20T11:15:10.442Z,13.47
2022-10-20T11:17:12.246Z,13.43
2022-10-20T11:19:13.829Z,13.36
2022-10-20T11:21:14.930Z,13.35
2022-10-20T11:23:16.015Z,13.15
2022-10-20T11:25:17.473Z,13.28
2022-10-20T11:27:18.957Z,13.38
2022-10-20T11:29:20.717Z,13.37
2022-10-20T11:31:21.616Z,13.29
2022-10-20T11:33:22.778Z,13.23
2022-10-20T11:35:23.809Z,13.18
2022-10-20T11:37:24.682Z,13.17
2022-10-20T11:39:26.053Z,13.3
2022-10-20T11:41:27.427Z,13.31
2022-10-20T11:43:29.029Z,13.33
2022-10-20T11:45:30.557Z,13.42
2022-10-20T11:47:31.997Z,13.4
2022-10-20T11:49:33.564Z,13.38
2022-10-20T11:51:34.886Z,13.54
2022-10-20T11:53:36.055Z,13.61
2022-10-20T11:55:37.535Z,13.79
2022-10-20T11:57:38.738Z,13.97
2022-10-20T11:59:40.502Z,14.08
2022-10-20T12:01:41.661Z,14.44
2022-10-20T12:03:43.421Z,14.7
2022-10-20T12:05:44.534Z,14.48
2022-10-20T12:07:45.455Z,14.35
2022-10-20T12:09:46.770Z,14.21
2022-10-20T12:11:48.439Z,14.27
2022-10-20T12:13:58.218Z,14.28
2022-10-20T12:15:59.597Z,14.55
2022-10-20T12:17:52.447Z,14.79
2022-10-20T12:19:54.053Z,14.75
2022-10-20T12:21:54.853Z,14.74
2022-10-20T12:23:56.367Z,14.84
2022-10-20T12:25:57.272Z,14.93
2022-10-20T12:29:59.827Z,14.48
2022-10-20T12:32:01.529Z,14.61
2022-10-20T12:34:02.380Z,14.44
2022-10-20T12:36:03.458Z,14.49
2022-10-20T12:38:05.254Z,14.56
2022-10-20T12:40:06.619Z,14.65
2022-10-20T12:42:07.770Z,14.78
2022-10-20T12:44:09.073Z,14.9
2022-10-20T12:48:11.958Z,15.06
2022-10-20T12:50:13.143Z,14.97
2022-10-20T12:52:14.365Z,14.87
2022-10-20T12:54:15.266Z,14.82
2022-10-20T12:56:16.516Z,14.76
2022-10-20T12:58:17.985Z,14.71
2022-10-20T13:00:19.639Z,14.83
2022-10-20T13:02:21.303Z,14.78
2022-10-20T13:04:22.236Z,14.79
2022-10-20T13:06:23.643Z,14.81
2022-10-20T13:08:25.088Z,14.87
2022-10-20T13:10:26.880Z,14.84
2022-10-20T13:12:28.396Z,14.81
2022-10-20T13:14:29.340Z,14.79
2022-10-20T13:16:30.848Z,14.85
2022-10-20T13:18:32.724Z,14.92
2022-10-20T13:20:33.839Z,15.03
2022-10-20T13:22:35.264Z,15.04
2022-10-20T13:24:38.415Z,15.01
2022-10-20T13:26:37.746Z,15.06
2022-10-20T13:28:39.390Z,14.99
2022-10-20T13:30:40.251Z,15.02
2022-10-20T13:32:47.731Z,15.02
2022-10-20T13:34:42.358Z,14.94
2022-10-20T13:36:43.411Z,14.97
2022-10-20T13:38:44.741Z,14.93
2022-10-20T13:40:46.220Z,14.92
2022-10-20T13:42:47.767Z,14.95
2022-10-20T13:44:49.244Z,14.98
2022-10-20T13:46:50.296Z,14.99
2022-10-20T13:48:51.185Z,14.9
2022-10-20T13:50:52.306Z,14.93
2022-10-20T13:52:53.364Z,15
2022-10-20T13:54:54.881Z,14.99
2022-10-20T13:56:55.793Z,15
2022-10-20T13:58:57.796Z,15.05
2022-10-20T14:00:58.461Z,15.01
2022-10-20T14:02:59.394Z,15.06
2022-10-20T14:05:00.984Z,15.02
2022-10-20T14:07:02.591Z,14.95
2022-10-20T14:09:04.002Z,14.81
2022-10-20T14:11:48.936Z,14.71
2022-10-20T14:13:50.144Z,14.56
2022-10-20T14:15:51.550Z,14.54
2022-10-20T14:19:53.682Z,14.4
2022-10-20T14:21:54.674Z,14.33
2022-10-20T14:23:55.921Z,14.25
2022-10-20T14:25:57.434Z,14.17
2022-10-20T14:27:59.072Z,14.15
2022-10-20T14:30:00.743Z,14.01
2022-10-20T14:32:02.542Z,13.95
2022-10-20T14:34:03.917Z,13.84
2022-10-20T14:36:05.237Z,13.77
2022-10-20T14:38:06.221Z,13.67
2022-10-20T14:40:07.245Z,13.7
2022-10-20T14:42:08.566Z,13.68
2022-10-20T14:46:10.681Z,13.67
2022-10-20T14:48:11.842Z,13.58
2022-10-20T14:50:13.538Z,13.54
2022-10-20T14:52:18.906Z,13.52
2022-10-20T14:54:16.578Z,13.55
2022-10-20T14:56:20.725Z,13.56
2022-10-20T14:58:18.923Z,13.64
2022-10-20T15:00:20.302Z,13.63
2022-10-20T15:02:21.980Z,13.65
2022-10-20T15:04:23.388Z,13.63
2022-10-20T15:06:24.600Z,13.65
2022-10-20T15:08:26.469Z,13.6
2022-10-20T15:10:27.765Z,13.58
2022-10-20T15:12:29.383Z,13.62
2022-10-20T15:14:30.294Z,13.61
2022-10-20T15:16:31.296Z,13.6
2022-10-20T15:18:35.358Z,13.45
2022-10-20T15:20:33.678Z,13.33
2022-10-20T15:22:35.132Z,13.29
2022-10-20T15:24:36.547Z,13.26
2022-10-20T15:26:37.717Z,13.2
2022-10-20T15:28:38.808Z,13.23
2022-10-20T15:30:39.738Z,13.14
2022-10-20T15:32:40.910Z,13.14
2022-10-20T15:34:42.528Z,13.21
2022-10-20T15:36:44.610Z,13.28
2022-10-20T15:38:44.968Z,13.29
2022-10-20T15:40:46.381Z,13.29
2022-10-20T15:42:47.557Z,13.27
2022-10-20T15:44:48.872Z,13.33
2022-10-20T15:46:50.115Z,13.26
2022-10-20T15:48:51.286Z,13.29
2022-10-20T15:50:52.595Z,13.26
2022-10-20T15:52:53.735Z,13.19
2022-10-20T15:54:55.284Z,13.23
2022-10-20T15:56:56.552Z,13.15
2022-10-20T15:58:58.373Z,13.06
2022-10-20T16:01:00.991Z,12.98
2022-10-20T16:03:01.259Z,12.87
2022-10-20T16:05:02.939Z,12.87
2022-10-20T16:07:04.436Z,12.81
2022-10-20T16:09:05.549Z,12.82
2022-10-20T16:11:07.130Z,12.79
2022-10-20T16:13:08.762Z,12.8
2022-10-20T16:15:10.473Z,12.68
2022-10-20T16:17:11.878Z,12.73
2022-10-20T16:19:13.754Z,12.83
2022-10-20T16:21:15.436Z,13.06
2022-10-20T16:23:16.291Z,13.1
2022-10-20T16:25:17.370Z,13.04
2022-10-20T16:27:19.041Z,12.87
2022-10-20T16:29:20.051Z,12.78
2022-10-20T16:31:21.154Z,12.78
2022-10-20T16:33:23.031Z,12.9
2022-10-20T16:37:26.010Z,13.08
2022-10-20T16:39:27.341Z,13.13
2022-10-20T16:41:28.938Z,13.14
2022-10-20T16:43:30.484Z,13.19
2022-10-20T16:45:31.868Z,13.14
2022-10-20T16:47:32.818Z,13.09
2022-10-20T16:49:34.251Z,13.05
2022-10-20T16:51:35.433Z,13.06
2022-10-20T16:53:36.820Z,13.1
2022-10-20T16:55:38.308Z,13.08
2022-10-20T16:57:40.223Z,13.06
2022-10-20T16:59:41.088Z,13
2022-10-20T17:01:42.104Z,12.96
2022-10-20T17:05:44.856Z,12.84
2022-10-20T17:07:46.048Z,12.86
2022-10-20T17:09:47.272Z,12.83
2022-10-20T17:11:49.120Z,12.8
2022-10-20T17:13:50.018Z,12.77
2022-10-20T17:15:51.235Z,12.7
2022-10-20T17:17:52.461Z,12.62
2022-10-20T17:19:53.506Z,12.55
2022-10-20T17:21:56.207Z,12.46
2022-10-20T17:23:56.417Z,12.39
2022-10-20T17:25:57.766Z,12.39
2022-10-20T17:27:59.271Z,12.34
2022-10-20T17:30:00.854Z,12.46
2022-10-20T17:32:02.369Z,12.58
2022-10-20T17:34:04.244Z,12.72
2022-10-20T17:36:06.137Z,12.78
2022-10-20T17:38:07.709Z,12.5
2022-10-20T17:40:08.826Z,12.43
2022-10-20T17:42:09.979Z,12.52
2022-10-20T17:44:11.289Z,12.8
2022-10-20T17:46:12.674Z,12.95
2022-10-20T17:48:14.152Z,12.99
2022-10-20T17:50:15.188Z,12.99
2022-10-20T17:52:17.015Z,12.97
2022-10-20T17:54:18.134Z,12.97
2022-10-20T17:56:19.487Z,13.03
2022-10-20T17:58:20.387Z,12.98
2022-10-20T18:00:26.947Z,12.92
2022-10-20T18:02:23.160Z,12.88
2022-10-20T18:04:24.823Z,12.75
2022-10-20T18:06:28.886Z,12.62
2022-10-20T18:08:27.305Z,12.53
2022-10-20T18:10:29.084Z,12.54
2022-10-20T18:12:30.187Z,12.79
2022-10-20T18:14:31.157Z,12.83
2022-10-20T18:18:33.253Z,12.87
2022-10-20T18:20:35.062Z,12.95
2022-10-20T18:22:37.031Z,12.99
2022-10-20T18:24:38.464Z,13.04
2022-10-20T18:26:40.053Z,13.03
2022-10-20T18:28:42.107Z,13
2022-10-20T18:30:43.072Z,13.03
2022-10-20T18:32:44.832Z,13.03
2022-10-20T18:34:46.026Z,12.97
2022-10-20T18:36:47.776Z,12.95
2022-10-20T18:38:48.925Z,12.79
2022-10-20T18:40:50.596Z,12.76
2022-10-20T18:42:51.911Z,12.71
2022-10-20T18:44:53.439Z,12.7
2022-10-20T18:47:02.521Z,12.67
2022-10-20T18:48:56.107Z,12.63
2022-10-20T18:50:57.945Z,12.64
2022-10-20T18:52:59.844Z,12.57
2022-10-20T18:55:01.021Z,12.55
2022-10-20T18:57:02.371Z,12.47
2022-10-20T18:59:03.316Z,12.44
2022-10-20T19:01:04.555Z,12.39
2022-10-20T19:03:05.551Z,12.38
2022-10-20T19:05:06.795Z,12.39
2022-10-20T19:07:08.185Z,12.42
2022-10-20T19:09:10.140Z,12.43
2022-10-20T19:11:11.612Z,12.41
2022-10-20T19:13:12.653Z,12.36
2022-10-20T19:15:14.159Z,12.34
2022-10-20T19:17:16.060Z,12.31
2022-10-20T19:19:17.671Z,12.29
2022-10-20T19:23:21.232Z,12.16
2022-10-20T19:25:22.721Z,12.09
2022-10-20T19:27:26.827Z,12.07
2022-10-20T19:29:25.682Z,12.05
2022-10-20T19:31:26.796Z,12.03
2022-10-20T19:33:27.833Z,12.04
2022-10-20T19:35:29.007Z,12.01
2022-10-20T19:37:29.954Z,12.05
2022-10-20T19:39:31.638Z,12.03
2022-10-20T19:41:33.269Z,12.05
2022-10-20T19:43:34.998Z,12.04
2022-10-20T19:45:36.401Z,12.06
2022-10-20T19:47:37.748Z,12.01
2022-10-20T19:49:39.475Z,12.03
2022-10-20T19:51:41.306Z,12.02
2022-10-20T19:53:43.073Z,11.99
2022-10-20T19:55:44.301Z,11.9
2022-10-20T19:57:46.083Z,11.88
2022-10-20T19:59:46.991Z,11.87
2022-10-20T20:01:48.184Z,11.84
2022-10-20T20:03:49.527Z,11.84
2022-10-20T20:05:51.325Z,11.77
2022-10-20T20:07:52.621Z,11.75
2022-10-20T20:09:54.419Z,11.79
2022-10-20T20:11:55.425Z,11.75
2022-10-20T20:13:57.010Z,11.77
2022-10-20T20:15:59.964Z,11.75
2022-10-20T20:18:00.291Z,11.74
2022-10-20T20:20:02.164Z,11.75
2022-10-20T20:22:03.438Z,11.81
2022-10-20T20:24:05.214Z,11.85
2022-10-20T20:26:06.120Z,11.93
2022-10-20T20:28:07.042Z,11.94
2022-10-20T20:30:07.966Z,11.91
2022-10-20T20:32:09.142Z,11.82
2022-10-20T20:34:10.162Z,11.8
2022-10-20T20:36:11.614Z,11.81
2022-10-20T20:38:12.525Z,11.83
2022-10-20T20:40:14.068Z,11.84
2022-10-20T20:42:14.982Z,11.78
2022-10-20T20:44:16.856Z,11.78
2022-10-20T20:46:18.037Z,11.78
2022-10-20T20:48:19.117Z,11.78
2022-10-20T20:50:20.416Z,11.77
2022-10-20T20:52:21.343Z,11.77
2022-10-20T20:54:22.360Z,11.8
2022-10-20T20:57:07.360Z,11.81
2022-10-20T20:59:09.135Z,11.81
2022-10-20T21:01:10.394Z,11.8
2022-10-20T21:03:12.111Z,11.81
2022-10-20T21:05:13.319Z,11.8
2022-10-20T21:07:14.981Z,11.82
2022-10-20T21:09:16.032Z,11.84
2022-10-20T21:11:16.926Z,11.88
2022-10-20T21:13:18.111Z,11.85
2022-10-20T21:15:19.957Z,11.8
2022-10-20T21:17:21.094Z,11.82
2022-10-20T21:19:23.070Z,11.84
2022-10-20T21:21:24.285Z,11.85
2022-10-20T21:23:25.448Z,11.89
2022-10-20T21:25:26.718Z,11.93
2022-10-20T21:27:27.768Z,11.89
2022-10-20T21:29:29.259Z,11.84
2022-10-20T21:31:30.439Z,11.8
2022-10-20T21:33:31.362Z,11.8
2022-10-20T21:35:32.444Z,11.81
2022-10-20T21:37:34.328Z,11.82
2022-10-20T21:39:35.821Z,11.9
2022-10-20T21:41:37.075Z,11.95
2022-10-20T21:43:37.955Z,12.05
2022-10-20T21:45:39.237Z,12.06
2022-10-20T21:47:40.228Z,12.07
2022-10-20T21:49:41.946Z,12.12
2022-10-20T21:51:43.642Z,12.13
2022-10-20T21:53:44.697Z,12.16
2022-10-20T21:55:46.273Z,12.18
2022-10-20T21:57:48.148Z,12.21
2022-10-20T21:59:49.945Z,12.14
2022-10-20T22:01:50.941Z,12.1
2022-10-20T22:03:52.361Z,12.04
2022-10-20T22:05:53.658Z,12.06
2022-10-20T22:07:54.670Z,12.05
2022-10-20T22:09:55.792Z,12.03
2022-10-20T22:11:57.059Z,12.08
2022-10-20T22:13:58.931Z,12.07
2022-10-20T22:16:00.544Z,12.03
2022-10-20T22:18:02.321Z,12.07
2022-10-20T22:20:03.764Z,12.11
2022-10-20T22:22:04.806Z,12.12
2022-10-20T22:24:06.008Z,12.19
2022-10-20T22:26:07.005Z,12.24
2022-10-20T22:28:08.399Z,12.07
2022-10-20T22:30:09.502Z,12.02
2022-10-20T22:32:10.530Z,12.03
2022-10-20T22:34:12.401Z,12.01
2022-10-20T22:36:14.164Z,12.1
2022-10-20T22:38:15.904Z,12.11
2022-10-20T22:40:17.325Z,12.14
2022-10-20T22:42:20.134Z,12.2
2022-10-20T22:44:19.951Z,12.25
2022-10-20T22:46:21.248Z,12.25
2022-10-20T22:48:22.500Z,12.12
2022-10-20T22:50:23.970Z,12.06
2022-10-20T22:52:25.741Z,12.06
2022-10-20T22:54:27.244Z,12.04
2022-10-20T22:56:28.631Z,12.06
2022-10-20T22:58:29.657Z,12.06
2022-10-20T23:00:31.338Z,12.12
2022-10-20T23:02:32.889Z,12.02
2022-10-20T23:04:34.677Z,12.02
2022-10-20T23:06:36.109Z,12
2022-10-20T23:08:45.346Z,11.97
2022-10-20T23:10:38.530Z,11.93
2022-10-20T23:12:40.644Z,11.95
2022-10-20T23:14:41.700Z,11.94
2022-10-20T23:16:42.853Z,11.91
2022-10-20T23:18:44.480Z,11.92
2022-10-20T23:20:45.828Z,11.93
2022-10-20T23:22:46.879Z,11.91
2022-10-20T23:24:48.111Z,12.02
2022-10-20T23:26:49.806Z,12.02
2022-10-20T23:28:50.845Z,12.01
2022-10-20T23:30:51.827Z,12.01
2022-10-20T23:32:53.610Z,12.08
2022-10-20T23:34:54.570Z,12.15
2022-10-20T23:36:55.701Z,12.17
2022-10-20T23:38:57.161Z,12.16
2022-10-20T23:40:58.194Z,12.11
2022-10-20T23:42:59.027Z,11.94
2022-10-20T23:45:00.199Z,11.86
2022-10-20T23:47:01.502Z,11.97
2022-10-20T23:49:03.323Z,12.06
2022-10-20T23:51:04.340Z,12.14
2022-10-20T23:53:05.880Z,12.18
2022-10-20T23:55:07.700Z,12.21
2022-10-20T23:57:07.990Z,12.21
2022-10-20T23:59:08.884Z,12
